createdAt,value
2023-03-23T15:59:47.165Z,7.33
2023-03-23T16:02:21.865Z,7.37
2023-03-23T16:04:50.698Z,7.17
2023-03-23T16:07:23.611Z,7.60
2023-03-23T16:09:52.029Z,6.20
2023-03-23T16:12:22.343Z,5.40
2023-03-23T16:14:51.307Z,5.00
2023-03-23T16:17:21.879Z,4.50
2023-03-23T16:19:50.477Z,4.07
2023-03-23T16:22:18.981Z,5.03
2023-03-23T16:24:47.533Z,4.93
2023-03-23T16:27:16.240Z,5.60
2023-03-23T16:30:02.178Z,5.40
2023-03-23T16:32:45.561Z,5.20
2023-03-23T16:35:18.370Z,5.47
2023-03-23T16:37:47.927Z,4.80
2023-03-23T16:40:23.119Z,4.90
2023-03-23T16:42:51.858Z,4.13
2023-03-23T16:45:24.197Z,4.03
2023-03-23T16:47:55.162Z,3.60
2023-03-23T16:50:27.995Z,3.43
2023-03-23T16:52:57.436Z,2.60
2023-03-23T16:55:27.381Z,2.70
2023-03-23T16:58:13.256Z,2.40
2023-03-23T17:00:49.001Z,2.77
2023-03-23T17:03:18.719Z,2.77
2023-03-23T17:05:49.443Z,2.10
2023-03-23T17:08:18.150Z,1.93
2023-03-23T17:11:51.467Z,2.20
2023-03-23T17:14:19.988Z,2.17
2023-03-23T17:16:49.734Z,1.87
2023-03-23T17:19:18.223Z,1.97
2023-03-23T17:21:46.897Z,2.83
2023-03-23T17:24:16.905Z,2.13
2023-03-23T17:26:47.211Z,1.83
2023-03-23T17:29:23.262Z,1.90
2023-03-23T17:31:53.693Z,2.00
2023-03-23T17:34:22.253Z,2.20
2023-03-23T17:36:51.821Z,2.07
2023-03-23T17:39:20.677Z,1.90
2023-03-23T17:41:49.261Z,1.50
2023-03-23T17:44:18.013Z,1.77
2023-03-23T17:46:47.078Z,1.70
2023-03-23T17:49:18.601Z,2.13
2023-03-23T17:51:47.449Z,1.80
2023-03-23T17:54:15.988Z,1.83
2023-03-23T17:56:45.579Z,1.73
2023-03-23T17:59:14.334Z,1.73
2023-03-23T18:01:50.120Z,1.93
2023-03-23T18:04:20.310Z,2.67
2023-03-23T18:06:48.818Z,2.63
2023-03-23T18:09:17.745Z,2.07
2023-03-23T18:11:47.403Z,2.10
2023-03-23T18:14:18.359Z,2.30
2023-03-23T18:16:47.603Z,2.75
2023-03-23T18:19:17.469Z,2.33
2023-03-23T18:21:48.539Z,2.72
2023-03-23T18:24:17.466Z,3.40
2023-03-23T18:26:47.650Z,3.10
2023-03-23T18:29:17.142Z,2.83
2023-03-23T18:31:47.905Z,3.30
2023-03-23T18:34:19.780Z,2.77
2023-03-23T18:37:49.150Z,2.80
2023-03-23T18:40:35.259Z,2.93
2023-03-23T18:43:04.127Z,2.90
2023-03-23T19:03:31.153Z,2.10
2023-03-23T19:06:00.656Z,2.60
2023-03-23T19:08:29.898Z,2.03
2023-03-23T19:11:01.087Z,2.43
2023-03-23T19:13:30.835Z,2.30
2023-03-23T19:15:59.425Z,2.70
2023-03-23T19:18:28.130Z,2.63
2023-03-23T19:23:30.721Z,2.97
2023-03-23T19:25:59.373Z,3.37
2023-03-23T19:31:00.309Z,2.47
2023-03-23T19:33:29.308Z,2.30
2023-03-23T19:36:09.095Z,3.37
2023-03-23T19:38:40.085Z,2.57
2023-03-23T19:41:08.763Z,2.80
2023-03-23T19:43:37.858Z,3.10
2023-03-23T19:46:06.641Z,2.70
2023-03-23T19:48:35.038Z,2.57
2023-03-23T19:51:05.015Z,3.03
2023-03-23T19:53:33.482Z,4.87
2023-03-23T19:56:03.649Z,4.43
2023-03-23T19:58:34.580Z,3.80
2023-03-23T20:01:03.001Z,3.83
2023-03-23T20:03:31.378Z,3.40
2023-03-23T20:06:01.378Z,4.37
2023-03-23T20:08:31.741Z,3.83
2023-03-23T20:11:05.734Z,3.17
2023-03-23T20:13:34.283Z,3.30
2023-03-23T20:16:03.259Z,3.27
2023-03-23T20:18:31.984Z,3.37
2023-03-23T20:21:04.762Z,3.37
2023-03-23T20:23:35.822Z,4.53
2023-03-23T20:26:07.261Z,6.20
2023-03-23T20:28:36.083Z,5.70
2023-03-23T20:31:18.770Z,4.27
2023-03-23T20:34:01.083Z,4.03
2023-03-23T20:36:35.155Z,5.93
2023-03-23T20:39:08.162Z,5.70
2023-03-23T20:41:38.900Z,4.83
2023-03-23T20:44:09.296Z,3.50
2023-03-23T20:46:37.808Z,3.47
2023-03-23T20:49:06.572Z,3.67
2023-03-23T20:51:35.088Z,3.70
2023-03-23T20:54:06.157Z,3.67
2023-03-23T20:56:35.759Z,3.30
2023-03-23T20:59:05.826Z,3.20
2023-03-23T21:01:34.485Z,2.93
2023-03-23T21:04:03.461Z,3.90
2023-03-23T21:06:34.123Z,3.93
2023-03-23T21:09:03.844Z,3.53
2023-03-23T21:11:35.330Z,2.93
2023-03-23T21:14:04.531Z,3.53
2023-03-23T21:16:32.964Z,2.90
2023-03-23T21:19:01.749Z,3.63
2023-03-23T21:21:30.369Z,3.17
2023-03-23T21:23:59.193Z,2.80
2023-03-23T21:26:29.767Z,2.97
2023-03-23T21:29:01.075Z,3.60
2023-03-23T21:31:32.009Z,2.80
2023-03-23T21:34:00.467Z,3.23
2023-03-23T21:36:29.827Z,3.53
2023-03-23T21:38:58.873Z,3.97
2023-03-23T21:41:30.127Z,3.20
2023-03-23T21:44:12.203Z,2.97
2023-03-23T21:46:42.144Z,2.67
2023-03-23T21:49:14.288Z,3.07
2023-03-23T21:51:44.039Z,3.40
2023-03-23T21:54:13.413Z,3.43
2023-03-23T21:56:42.017Z,5.10
2023-03-23T21:59:11.758Z,5.63
2023-03-23T22:01:40.652Z,5.70
2023-03-23T22:04:09.313Z,5.10
2023-03-23T22:06:38.061Z,3.87
2023-03-23T22:09:07.138Z,3.00
2023-03-23T22:11:35.682Z,2.67
2023-03-23T22:14:04.464Z,2.87
2023-03-23T22:16:34.549Z,3.13
2023-03-23T22:19:03.421Z,3.57
2023-03-23T22:21:32.029Z,2.70
2023-03-23T22:24:02.056Z,3.30
2023-03-23T22:26:31.381Z,2.93
2023-03-23T22:29:01.041Z,2.40
2023-03-23T22:31:32.722Z,2.93
2023-03-23T22:34:03.292Z,3.40
2023-03-23T22:36:33.457Z,3.40
2023-03-23T22:39:02.609Z,3.10
2023-03-23T22:41:33.690Z,3.80
2023-03-23T22:44:03.547Z,3.70
2023-03-23T22:46:32.090Z,3.40
2023-03-23T22:49:00.772Z,4.03
2023-03-23T22:51:30.835Z,3.40
2023-03-23T22:53:59.606Z,3.17
2023-03-23T22:56:28.127Z,3.00
2023-03-23T22:58:59.034Z,3.43
2023-03-23T23:01:29.031Z,2.80
2023-03-23T23:03:58.870Z,2.30
2023-03-23T23:06:27.790Z,3.17
2023-03-23T23:08:57.820Z,3.30
2023-03-23T23:11:27.889Z,3.10
2023-03-23T23:13:57.624Z,2.73
2023-03-23T23:16:27.932Z,3.80
2023-03-23T23:18:57.084Z,2.97
2023-03-23T23:21:27.278Z,3.10
2023-03-23T23:23:55.774Z,3.70
2023-03-23T23:26:25.767Z,3.97
2023-03-23T23:28:54.399Z,4.43
2023-03-23T23:31:26.359Z,4.90
2023-03-23T23:33:57.052Z,4.23
2023-03-23T23:36:30.531Z,4.47
2023-03-23T23:39:00.296Z,5.03
2023-03-23T23:41:30.986Z,5.47
2023-03-23T23:44:00.093Z,4.97
2023-03-23T23:46:30.729Z,4.40
2023-03-23T23:48:59.866Z,4.07
2023-03-23T23:51:28.868Z,3.80
2023-03-23T23:53:59.257Z,3.73
2023-03-23T23:56:29.499Z,5.20
2023-03-23T23:58:58.747Z,4.53
